Phillips, Maine
Current Conditions -  °F | °C
As of 5:15 PM on Monday 22 Dec 2014 (Local Time) from KWVL Reporting Station
Overcast Overcast  
Wind Chill: 34°   Ceiling: 1700
Heat Index: 34°   Visibility: 10mi
Dew Point: 25°   Wind: 3mph
Humidity: 70%   Direction: 50°NE
Pressure: 30.35"   Gusts: NA
Location:  44.82°N, 70.34°W
Report Text: KWVL 222215Z 05003KT 10SM BKN017 OVC050 01/M04 A3035 RMK AO1
Loading
Personal Weather Stations






























Interactive Weather Map New forecast layout! Learn more

10-Day Weather Forecast

Advertisements
Track Severe Weather on mobile